createdAt,value
2019-04-23T00:02:29.782Z,2.10
2019-04-23T00:05:02.095Z,2.73
2019-04-23T00:15:13.477Z,2.53
2019-04-23T00:17:48.920Z,2.47
2019-04-23T00:20:20.083Z,2.60
2019-04-23T00:23:02.120Z,2.53
2019-04-23T00:25:49.834Z,2.40
2019-04-23T00:28:16.508Z,2.63
2019-04-23T00:33:21.872Z,2.50
2019-04-23T00:35:50.103Z,3.00
2019-04-23T00:38:27.938Z,2.50
2019-04-23T00:40:58.297Z,2.73
2019-04-23T00:43:30.598Z,2.80
2019-04-23T00:45:59.317Z,2.67
2019-04-23T00:48:36.472Z,2.80
2019-04-23T00:51:23.915Z,2.60
2019-04-23T00:53:32.811Z,2.57
2019-04-23T00:56:26.665Z,2.80
2019-04-23T01:01:18.542Z,2.80
2019-04-23T01:03:50.411Z,2.97
2019-04-23T01:06:19.356Z,2.60
2019-04-23T01:08:52.306Z,2.80
2019-04-23T01:11:27.509Z,2.83
2019-04-23T01:13:55.638Z,2.57
2019-04-23T01:16:31.755Z,2.90
2019-04-23T01:19:24.414Z,2.90
2019-04-23T01:21:18.042Z,2.70
2019-04-23T01:24:09.571Z,2.40
2019-04-23T01:27:35.829Z,3.00
2019-04-23T01:29:51.812Z,2.70
2019-04-23T01:32:30.421Z,2.90
2019-04-23T01:35:06.634Z,2.83
2019-04-23T01:37:33.144Z,3.03
2019-04-23T01:40:09.695Z,3.33
2019-04-23T01:42:44.217Z,3.50
2019-04-23T01:45:11.767Z,3.10
2019-04-23T01:47:40.627Z,2.80
2019-04-23T01:50:14.174Z,3.53
2019-04-23T01:52:53.938Z,3.90
2019-04-23T01:55:24.742Z,3.30
2019-04-23T01:58:04.525Z,3.17
2019-04-23T02:00:22.497Z,3.73
2019-04-23T02:02:58.999Z,3.30
2019-04-23T02:10:51.246Z,3.53
2019-04-23T02:15:37.403Z,3.40
2019-04-23T02:18:13.290Z,3.33
2019-04-23T02:20:42.976Z,2.93
2019-04-23T02:28:25.785Z,3.07
2019-04-23T02:33:44.698Z,3.27
2019-04-23T02:36:05.449Z,3.10
2019-04-23T02:38:54.535Z,3.10
2019-04-23T02:44:11.078Z,3.37
2019-04-23T02:46:32.119Z,3.10
2019-04-23T02:49:18.081Z,3.87
2019-04-23T02:54:27.157Z,3.10
2019-04-23T02:59:30.119Z,3.10
2019-04-23T03:01:53.982Z,3.10
2019-04-23T03:04:32.847Z,3.03
2019-04-23T03:07:14.152Z,3.17
2019-04-23T03:12:12.036Z,3.00
2019-04-23T03:14:37.715Z,3.00
2019-04-23T03:19:45.544Z,3.20
2019-04-23T03:30:13.448Z,3.00
2019-04-23T03:37:49.003Z,3.50
2019-04-23T03:43:04.439Z,3.07
2019-04-23T03:45:37.043Z,3.23
2019-04-23T03:48:07.998Z,3.27
2019-04-23T03:50:35.840Z,3.80
2019-04-23T03:53:25.688Z,6.90
2019-04-23T03:55:37.778Z,3.57
2019-04-23T03:58:12.435Z,3.90
2019-04-23T04:03:42.526Z,3.87
2019-04-23T04:08:18.489Z,3.93
2019-04-23T04:13:47.351Z,4.60
2019-04-23T04:18:45.819Z,4.13
2019-04-23T04:23:43.150Z,4.03
2019-04-23T04:26:45.850Z,4.57
2019-04-23T04:31:42.856Z,4.10
2019-04-23T04:34:21.421Z,4.00
2019-04-23T04:36:45.321Z,4.50
2019-04-23T04:39:07.347Z,4.70
2019-04-23T04:41:55.423Z,4.13
2019-04-23T04:52:15.851Z,4.00
2019-04-23T04:57:00.164Z,4.50
2019-04-23T04:59:35.141Z,4.63
2019-04-23T05:02:30.398Z,5.00
2019-04-23T05:07:09.312Z,4.87
2019-04-23T05:12:19.246Z,5.40
2019-04-23T05:17:24.144Z,5.67
2019-04-23T05:22:33.672Z,5.17
2019-04-23T05:24:51.422Z,5.27
2019-04-23T05:27:27.569Z,5.27
2019-04-23T05:30:07.759Z,5.53
2019-04-23T05:32:34.306Z,5.43
2019-04-23T05:35:03.517Z,5.03
2019-04-23T05:37:55.699Z,5.40
2019-04-23T05:45:21.673Z,5.40
2019-04-23T05:47:58.619Z,5.47
2019-04-23T05:50:38.732Z,5.53
2019-04-23T05:52:59.801Z,5.47
2019-04-23T05:55:32.270Z,5.60
2019-04-23T05:58:02.602Z,5.87
2019-04-23T06:00:39.930Z,5.53
2019-04-23T06:03:12.057Z,6.40
2019-04-23T06:08:18.734Z,6.13
2019-04-23T06:11:00.911Z,6.07
2019-04-23T06:13:19.192Z,6.70
2019-04-23T06:15:52.082Z,6.37
2019-04-23T06:18:30.453Z,7.10
2019-04-23T06:23:38.160Z,6.13
2019-04-23T06:28:57.394Z,6.43
2019-04-23T06:34:04.230Z,6.60
2019-04-23T06:39:35.984Z,6.97
2019-04-23T06:44:45.782Z,6.90
2019-04-23T06:47:03.198Z,6.57
2019-04-23T06:49:37.074Z,6.57
2019-04-23T06:52:14.734Z,6.63
2019-04-23T06:54:52.974Z,6.53
2019-04-23T06:59:42.493Z,7.10
2019-04-23T07:02:20.654Z,7.27
2019-04-23T07:04:58.604Z,7.17
2019-04-23T07:09:51.675Z,6.97
2019-04-23T07:12:41.122Z,6.73
2019-04-23T07:17:42.801Z,7.93
2019-04-23T07:20:01.306Z,7.47
2019-04-23T07:22:42.793Z,7.20
2019-04-23T07:25:08.260Z,6.93
2019-04-23T07:27:34.689Z,7.17
2019-04-23T07:30:14.326Z,6.80
2019-04-23T07:32:50.919Z,7.47
2019-04-23T07:35:15.808Z,7.47
2019-04-23T07:38:01.842Z,7.67
2019-04-23T07:40:37.475Z,7.67
2019-04-23T07:43:09.026Z,7.63
2019-04-23T07:46:04.216Z,7.93
2019-04-23T07:48:22.493Z,7.47
2019-04-23T07:50:57.889Z,7.90
2019-04-23T07:53:39.915Z,7.43
2019-04-23T07:56:08.289Z,8.13
2019-04-23T07:58:42.972Z,7.63
2019-04-23T08:01:12.517Z,8.00
2019-04-23T08:03:48.290Z,8.10
2019-04-23T08:06:16.530Z,7.97
2019-04-23T08:08:56.527Z,7.50
2019-04-23T08:14:08.361Z,8.07
2019-04-23T08:16:53.795Z,8.03
2019-04-23T08:19:25.541Z,7.73
2019-04-23T08:22:04.624Z,7.80
2019-04-23T08:24:45.244Z,8.90
2019-04-23T08:27:22.659Z,8.77
2019-04-23T08:29:42.261Z,8.23
2019-04-23T08:32:13.926Z,8.27
2019-04-23T08:34:54.307Z,9.20
2019-04-23T08:37:26.915Z,8.67
2019-04-23T08:40:15.105Z,8.93
2019-04-23T08:42:39.613Z,8.93
2019-04-23T08:48:12.429Z,8.83
2019-04-23T08:50:32.673Z,8.87
2019-04-23T08:53:26.409Z,9.13
2019-04-23T08:55:44.540Z,9.50
2019-04-23T08:58:13.540Z,9.40
2019-04-23T09:00:52.630Z,9.10
2019-04-23T09:06:02.519Z,9.20
2019-04-23T09:08:39.396Z,9.03
2019-04-23T09:13:50.290Z,9.53
2019-04-23T09:16:16.304Z,9.10
2019-04-23T09:18:35.267Z,9.27
2019-04-23T09:21:10.540Z,9.60
2019-04-23T09:23:46.724Z,9.60
2019-04-23T09:26:20.571Z,9.77
2019-04-23T09:29:04.566Z,8.73
2019-04-23T09:32:13.503Z,8.73
2019-04-23T09:34:43.806Z,8.97
2019-04-23T09:40:20.510Z,9.80
2019-04-23T09:45:41.183Z,9.03
2019-04-23T09:48:11.582Z,8.90
2019-04-23T09:50:43.368Z,9.30
2019-04-23T09:55:45.614Z,9.13
2019-04-23T09:58:34.620Z,8.97
2019-04-23T10:01:23.679Z,9.43
2019-04-23T10:03:39.010Z,10.20
2019-04-23T10:06:04.167Z,10.00
2019-04-23T10:08:36.440Z,10.10
2019-04-23T10:11:02.939Z,9.60
2019-04-23T10:13:34.473Z,9.40
2019-04-23T10:16:06.887Z,9.00
2019-04-23T10:18:39.212Z,9.73
2019-04-23T10:21:11.196Z,10.10
2019-04-23T10:23:43.251Z,9.83
2019-04-23T10:26:14.355Z,9.97
2019-04-23T10:28:54.011Z,10.20
2019-04-23T10:31:33.492Z,9.63
2019-04-23T10:34:06.221Z,10.00
2019-04-23T10:36:38.672Z,10.40
2019-04-23T10:39:29.853Z,10.30
2019-04-23T10:42:01.812Z,10.30
2019-04-23T10:44:43.185Z,11.10
2019-04-23T10:48:19.531Z,10.17
2019-04-23T10:58:35.181Z,9.43
2019-04-23T11:01:16.711Z,9.67
2019-04-23T11:06:39.671Z,10.17
2019-04-23T11:09:15.670Z,10.03
2019-04-23T11:11:50.727Z,9.43
2019-04-23T11:14:25.576Z,9.63
2019-04-23T11:17:04.418Z,9.73
2019-04-23T11:19:32.381Z,9.67
2019-04-23T11:22:04.254Z,10.50
2019-04-23T11:27:09.999Z,9.43
2019-04-23T11:29:44.285Z,8.90
2019-04-23T11:38:01.636Z,8.80
2019-04-23T11:38:02.798Z,9.60
2019-04-23T11:39:44.216Z,9.83
2019-04-23T11:42:17.014Z,9.97
2019-04-23T11:47:47.034Z,9.03
2019-04-23T11:50:25.903Z,8.87
2019-04-23T11:52:43.663Z,8.33
2019-04-23T11:55:22.780Z,8.97
2019-04-23T11:57:41.123Z,9.40
2019-04-23T12:00:13.751Z,8.67
2019-04-23T12:05:32.340Z,9.67
2019-04-23T12:08:07.340Z,8.23
2019-04-23T12:11:00.488Z,9.33
2019-04-23T12:13:28.511Z,8.10
2019-04-23T12:15:53.431Z,8.10
2019-04-23T12:18:35.390Z,8.80
2019-04-23T12:20:56.560Z,8.50
2019-04-23T12:23:42.466Z,8.90
2019-04-23T12:26:13.549Z,8.70
2019-04-23T12:28:42.253Z,9.30
2019-04-23T12:31:10.171Z,9.23
2019-04-23T12:33:51.896Z,9.10
2019-04-23T12:36:41.039Z,8.10
2019-04-23T12:39:08.696Z,8.83
2019-04-23T12:41:41.712Z,10.00
2019-04-23T12:44:10.791Z,8.63
2019-04-23T12:46:45.804Z,8.77
2019-04-23T12:49:22.169Z,8.57
2019-04-23T12:51:50.308Z,9.50
2019-04-23T12:54:23.079Z,9.30
2019-04-23T12:57:01.347Z,8.37
2019-04-23T12:59:23.737Z,8.97
2019-04-23T13:01:57.460Z,8.47
2019-04-23T13:04:26.334Z,8.53
2019-04-23T13:06:57.892Z,8.57
2019-04-23T13:09:42.843Z,9.57
2019-04-23T13:12:12.577Z,7.80
2019-04-23T13:14:43.712Z,9.20
2019-04-23T13:17:21.294Z,8.50
2019-04-23T13:19:49.823Z,7.93
2019-04-23T13:22:21.515Z,7.87
2019-04-23T13:24:57.834Z,8.70
2019-04-23T13:27:42.354Z,8.90
2019-04-23T13:30:08.710Z,9.43
2019-04-23T13:32:36.004Z,7.90
2019-04-23T13:35:23.058Z,9.63
2019-04-23T13:37:56.913Z,8.73
2019-04-23T13:40:16.722Z,8.10
2019-04-23T13:45:56.362Z,8.70
2019-04-23T13:48:06.219Z,8.90
2019-04-23T13:50:37.261Z,9.57
2019-04-23T13:53:18.219Z,8.97
2019-04-23T13:55:24.803Z,8.93
2019-04-23T13:58:08.853Z,8.90
2019-04-23T14:00:44.693Z,8.20
2019-04-23T14:03:13.349Z,8.70
2019-04-23T14:05:49.495Z,8.10
2019-04-23T14:08:33.347Z,8.30
2019-04-23T14:11:10.753Z,8.57
2019-04-23T14:16:03.566Z,8.03
2019-04-23T14:18:53.874Z,8.93
2019-04-23T14:21:20.387Z,9.03
2019-04-23T14:24:07.992Z,8.73
2019-04-23T14:28:45.017Z,7.90
2019-04-23T14:31:17.497Z,8.17
2019-04-23T14:36:25.474Z,7.87
2019-04-23T14:39:22.051Z,8.20
2019-04-23T14:44:10.496Z,8.03
2019-04-23T14:46:50.025Z,8.80
2019-04-23T14:49:16.145Z,8.13
2019-04-23T14:51:58.965Z,7.67
2019-04-23T14:55:18.734Z,7.47
2019-04-23T14:57:23.210Z,7.83
2019-04-23T14:59:53.616Z,7.60
2019-04-23T15:02:28.834Z,7.67
2019-04-23T15:05:06.302Z,7.83
2019-04-23T15:12:52.317Z,6.40
2019-04-23T15:15:23.973Z,6.60
2019-04-23T15:18:07.465Z,6.70
2019-04-23T15:20:39.742Z,6.53
2019-04-23T15:25:53.200Z,6.60
2019-04-23T15:28:07.022Z,6.43
2019-04-23T15:30:47.315Z,6.33
2019-04-23T15:41:10.244Z,6.43
2019-04-23T15:43:34.348Z,6.70
2019-04-23T15:46:11.650Z,6.50
2019-04-23T15:48:44.682Z,6.73
2019-04-23T15:51:24.916Z,5.77
2019-04-23T15:53:44.433Z,6.10
2019-04-23T15:56:29.212Z,6.60
2019-04-23T15:59:02.546Z,6.70
2019-04-23T16:03:28.991Z,6.57
2019-04-23T16:05:59.365Z,6.73
2019-04-23T16:09:04.861Z,6.30
2019-04-23T16:14:20.402Z,6.83
2019-04-23T16:16:45.262Z,6.40
2019-04-23T16:19:17.607Z,6.73
2019-04-23T16:24:17.763Z,6.33
2019-04-23T16:26:55.806Z,5.63
2019-04-23T16:31:54.691Z,6.50
2019-04-23T16:34:30.005Z,7.00
2019-04-23T16:37:08.525Z,6.17
2019-04-23T16:39:48.313Z,7.23
2019-04-23T16:42:18.177Z,6.30
2019-04-23T16:45:03.885Z,5.87
2019-04-23T16:47:24.608Z,6.90
2019-04-23T16:50:05.003Z,6.50
2019-04-23T16:52:26.430Z,6.70
2019-04-23T16:57:43.791Z,6.30
2019-04-23T17:03:07.809Z,6.60
2019-04-23T17:05:19.520Z,7.20
2019-04-23T17:07:52.577Z,6.37
2019-04-23T17:10:23.953Z,7.17
2019-04-23T17:12:55.943Z,6.40
2019-04-23T17:15:27.483Z,7.83
2019-04-23T17:17:54.930Z,6.70
2019-04-23T17:20:31.297Z,6.67
2019-04-23T17:23:05.529Z,6.47
2019-04-23T17:25:32.956Z,6.00
2019-04-23T17:31:01.552Z,7.17
2019-04-23T17:33:28.580Z,6.70
2019-04-23T17:36:05.413Z,6.50
2019-04-23T17:38:36.106Z,7.17
2019-04-23T17:41:05.707Z,6.90
2019-04-23T17:43:42.343Z,6.20
2019-04-23T17:46:14.843Z,6.33
2019-04-23T17:48:40.150Z,6.50
2019-04-23T17:51:13.256Z,6.60
2019-04-23T17:53:48.759Z,6.73
2019-04-23T17:56:29.391Z,5.93
2019-04-23T17:59:14.084Z,6.30
2019-04-23T18:01:25.652Z,6.20
2019-04-23T18:06:50.777Z,6.43
2019-04-23T18:09:14.532Z,5.90
2019-04-23T18:11:39.964Z,5.87
2019-04-23T18:14:08.516Z,6.03
2019-04-23T18:16:47.747Z,5.97
2019-04-23T18:24:57.883Z,5.50
2019-04-23T18:27:31.008Z,6.20
2019-04-23T18:30:15.833Z,6.10
2019-04-23T18:32:58.400Z,7.00
2019-04-23T18:35:21.530Z,6.90
2019-04-23T18:37:52.337Z,6.30
2019-04-23T18:40:21.519Z,6.70
2019-04-23T18:42:54.209Z,6.20
2019-04-23T18:45:38.669Z,6.90
2019-04-23T18:48:09.978Z,6.70
2019-04-23T18:50:46.752Z,6.57
2019-04-23T18:53:09.732Z,6.70
2019-04-23T18:55:54.358Z,6.40
2019-04-23T18:58:34.679Z,6.73
2019-04-23T19:03:55.208Z,7.17
2019-04-23T19:09:10.029Z,7.20
2019-04-23T19:14:25.700Z,7.43
2019-04-23T19:17:08.968Z,6.83
2019-04-23T19:19:31.710Z,6.97
2019-04-23T19:24:37.698Z,6.67
2019-04-23T19:27:29.958Z,6.20
2019-04-23T19:29:58.393Z,6.53
2019-04-23T19:32:36.853Z,6.73
2019-04-23T19:35:32.316Z,6.40
2019-04-23T19:40:28.452Z,7.20
2019-04-23T19:42:55.377Z,6.70
2019-04-23T19:45:38.995Z,6.43
2019-04-23T19:48:07.077Z,7.23
2019-04-23T19:50:49.112Z,6.80
2019-04-23T19:56:00.149Z,7.13
2019-04-23T19:58:26.203Z,6.90
2019-04-23T20:06:02.706Z,6.63
2019-04-23T20:08:49.320Z,6.97
2019-04-23T20:13:45.358Z,7.13
2019-04-23T20:16:16.183Z,6.80
2019-04-23T20:21:33.726Z,7.47
2019-04-23T20:24:03.900Z,6.93
2019-04-23T20:29:23.193Z,7.00
2019-04-23T20:34:34.219Z,7.27
2019-04-23T20:36:53.406Z,6.63
2019-04-23T20:39:33.009Z,7.30
2019-04-23T20:42:09.013Z,7.60
2019-04-23T20:44:53.804Z,6.60
2019-04-23T20:52:10.338Z,6.97
2019-04-23T20:54:56.923Z,7.67
2019-04-23T21:00:04.737Z,7.40
2019-04-23T21:05:15.468Z,7.43
2019-04-23T21:10:34.836Z,7.60
2019-04-23T21:20:40.821Z,7.13
2019-04-23T21:23:11.302Z,7.40
2019-04-23T21:25:50.627Z,7.40
2019-04-23T21:28:26.658Z,7.00
2019-04-23T21:33:33.810Z,6.70
2019-04-23T21:36:15.624Z,6.97
2019-04-23T21:39:04.440Z,7.10
2019-04-23T21:41:44.814Z,6.90
2019-04-23T21:49:17.372Z,7.27
2019-04-23T21:54:12.934Z,7.23
2019-04-23T21:59:23.110Z,6.43
2019-04-23T22:07:09.987Z,7.13
2019-04-23T22:12:15.460Z,7.20
2019-04-23T22:17:24.968Z,7.47
2019-04-23T22:20:03.467Z,6.63
2019-04-23T22:22:41.986Z,7.80
2019-04-23T22:24:57.515Z,6.73
2019-04-23T22:27:32.863Z,7.33
2019-04-23T22:30:04.959Z,7.23
2019-04-23T22:32:47.622Z,7.20
2019-04-23T22:37:53.890Z,7.80
2019-04-23T22:43:24.817Z,7.40
2019-04-23T22:45:27.517Z,6.77
2019-04-23T22:48:06.959Z,7.30
2019-04-23T22:50:39.660Z,7.17
2019-04-23T22:55:49.846Z,7.67
2019-04-23T22:58:11.463Z,7.33
2019-04-23T23:01:10.649Z,7.27
2019-04-23T23:03:29.447Z,7.53
2019-04-23T23:11:02.226Z,6.97
2019-04-23T23:13:55.172Z,6.73
2019-04-23T23:16:07.281Z,6.77
2019-04-23T23:18:40.555Z,6.87
2019-04-23T23:21:16.359Z,7.40
2019-04-23T23:24:13.606Z,6.77
2019-04-23T23:26:33.557Z,7.13
2019-04-23T23:29:01.765Z,6.53
2019-04-23T23:31:37.305Z,6.60
2019-04-23T23:34:09.937Z,7.07
2019-04-23T23:36:51.458Z,6.97
2019-04-23T23:39:25.090Z,6.50
2019-04-23T23:41:50.126Z,7.23
2019-04-23T23:47:03.088Z,6.93
2019-04-23T23:51:57.838Z,6.63
2019-04-23T23:54:26.966Z,6.70
2019-04-23T23:57:13.946Z,6.90
